Time;durP1;ratioP1;P1;durP2;ratioP2;P2;SDS_P1;SDS_P2;PMS_P1;PMS_P2;Temp;Humidity;BMP_temperature;BMP_pressure;BME280_temperature;BME280_humidity;BME280_pressure;Samples;Min_cycle;Max_cycle;Signal;HPM_P1;HPM_P2
2021/07/08 00:00:37;;;;;;;3.45;1.63;;;;;;;;;;5010860;28;20042;-78
2021/07/08 00:03:03;;;;;;;2.75;1.52;;;;;;;;;;5014465;28;20100;-78
2021/07/08 00:05:28;;;;;;;4.70;2.20;;;;;;;;;;5014446;28;20527;-78
2021/07/08 00:07:59;;;;;;;3.30;1.80;;;;;;;;;;4997861;28;20072;-80
2021/07/08 00:10:31;;;;;;;5.68;2.05;;;;;;;;;;5009523;28;20052;-80
2021/07/08 00:12:57;;;;;;;2.90;2.00;;;;;;;;;;5014044;28;20454;-80
2021/07/08 00:15:23;;;;;;;4.32;1.92;;;;;;;;;;5014262;28;20034;-80
2021/07/08 00:17:49;;;;;;;5.78;2.00;;;;;;;;;;4981906;28;20487;-80
2021/07/08 00:20:16;;;;;;;3.05;1.70;;;;;;;;;;5013752;28;20035;-80
2021/07/08 00:22:42;;;;;;;3.53;1.73;;;;;;;;;;4997686;28;20037;-80
2021/07/08 00:25:08;;;;;;;4.13;2.20;;;;;;;;;;4997583;28;20037;-80
2021/07/08 00:27:34;;;;;;;3.33;1.65;;;;;;;;;;4997701;28;20025;-80
2021/07/08 00:29:59;;;;;;;3.97;1.52;;;;;;;;;;5008299;28;20060;-81
2021/07/08 00:32:25;;;;;;;3.17;1.92;;;;;;;;;;5028419;28;20068;-80
2021/07/08 00:34:51;;;;;;;4.18;1.98;;;;;;;;;;5030116;28;20036;-80
2021/07/08 00:37:16;;;;;;;3.15;1.85;;;;;;;;;;4980644;28;20030;-80
2021/07/08 00:39:42;;;;;;;3.63;1.70;;;;;;;;;;4997271;28;20037;-80
2021/07/08 00:42:07;;;;;;;4.57;2.00;;;;;;;;;;4995318;28;20026;-80
2021/07/08 00:44:33;;;;;;;3.22;1.92;;;;;;;;;;5013940;28;20065;-80
2021/07/08 00:46:58;;;;;;;3.25;2.08;;;;;;;;;;4997417;28;20057;-80
2021/07/08 00:49:24;;;;;;;3.90;1.73;;;;;;;;;;4980627;28;20036;-80
2021/07/08 00:51:49;;;;;;;3.88;1.70;;;;;;;;;;5014207;28;20022;-80
2021/07/08 00:54:15;;;;;;;3.63;1.80;;;;;;;;;;4980784;28;20068;-80
2021/07/08 00:56:40;;;;;;;3.38;1.65;;;;;;;;;;5013544;28;20033;-80
2021/07/08 00:59:07;;;;;;;3.80;2.00;;;;;;;;;;5013575;28;20029;-80
2021/07/08 01:01:32;;;;;;;4.00;1.65;;;;;;;;;;4997328;28;20061;-80
2021/07/08 01:03:58;;;;;;;2.58;1.73;;;;;;;;;;5013309;28;20568;-81
2021/07/08 01:06:25;;;;;;;3.50;1.80;;;;;;;;;;4978025;28;20022;-80
2021/07/08 01:08:51;;;;;;;4.32;2.05;;;;;;;;;;5000981;28;20037;-80
2021/07/08 01:11:16;;;;;;;3.63;1.50;;;;;;;;;;4998108;28;20361;-80
2021/07/08 01:13:41;;;;;;;3.10;1.75;;;;;;;;;;5011601;28;20091;-80
2021/07/08 01:16:07;;;;;;;2.75;1.67;;;;;;;;;;4984954;28;20017;-80
2021/07/08 01:18:32;;;;;;;3.03;1.75;;;;;;;;;;4981143;28;20548;-80
2021/07/08 01:21:20;;;;;;;3.28;1.80;;;;;;;;;;5019038;28;20025;-80
2021/07/08 01:23:45;;;;;;;4.25;1.92;;;;;;;;;;5035049;28;20064;-80
2021/07/08 01:26:11;;;;;;;3.53;1.98;;;;;;;;;;5000847;28;20040;-80
2021/07/08 01:28:36;;;;;;;5.57;1.90;;;;;;;;;;5000018;28;20120;-80
2021/07/08 01:31:02;;;;;;;4.70;1.90;;;;;;;;;;4984832;28;20052;-80
2021/07/08 01:33:27;;;;;;;2.90;1.65;;;;;;;;;;4997371;28;20037;-80
2021/07/08 01:35:53;;;;;;;3.35;1.70;;;;;;;;;;5016708;28;20029;-80
2021/07/08 01:38:18;;;;;;;4.93;1.77;;;;;;;;;;4984688;28;20099;-80
2021/07/08 01:40:43;;;;;;;2.42;1.60;;;;;;;;;;5000742;28;20052;-80
2021/07/08 01:43:09;;;;;;;2.80;1.60;;;;;;;;;;4984579;28;20033;-80
2021/07/08 01:45:34;;;;;;;2.75;1.80;;;;;;;;;;5016458;28;20037;-80
2021/07/08 01:48:00;;;;;;;3.15;1.95;;;;;;;;;;4997604;28;20053;-80
2021/07/08 01:50:25;;;;;;;3.47;1.85;;;;;;;;;;5016502;28;20030;-80
2021/07/08 01:52:51;;;;;;;3.67;2.10;;;;;;;;;;5000006;28;20037;-79
2021/07/08 01:55:16;;;;;;;4.10;1.98;;;;;;;;;;5005167;28;20038;-78
2021/07/08 01:57:43;;;;;;;3.10;1.70;;;;;;;;;;5015551;28;20051;-78
2021/07/08 02:00:12;;;;;;;2.45;1.40;;;;;;;;;;5000747;28;20491;-78
2021/07/08 02:02:38;;;;;;;2.28;1.55;;;;;;;;;;5016549;28;20112;-78
2021/07/08 02:05:04;;;;;;;2.80;1.73;;;;;;;;;;5000016;28;20435;-79
2021/07/08 02:07:29;;;;;;;2.85;1.75;;;;;;;;;;4983872;28;20026;-78
2021/07/08 02:09:55;;;;;;;4.07;2.10;;;;;;;;;;4983810;28;20498;-78
2021/07/08 02:12:20;;;;;;;2.85;1.80;;;;;;;;;;5000135;28;20037;-78
2021/07/08 02:14:46;;;;;;;3.33;1.90;;;;;;;;;;4980840;28;20038;-78
2021/07/08 02:17:11;;;;;;;3.80;1.75;;;;;;;;;;5013139;28;20115;-78
2021/07/08 02:19:37;;;;;;;3.33;1.67;;;;;;;;;;5029500;28;20433;-79
2021/07/08 02:22:03;;;;;;;3.30;1.77;;;;;;;;;;5025737;28;20057;-78
2021/07/08 02:24:28;;;;;;;3.35;1.80;;;;;;;;;;4999409;28;20021;-78
2021/07/08 02:26:54;;;;;;;3.17;1.67;;;;;;;;;;5000205;28;20079;-78
2021/07/08 02:29:22;;;;;;;3.75;2.28;;;;;;;;;;4983655;28;20364;-78
2021/07/08 02:31:47;;;;;;;4.20;1.70;;;;;;;;;;5017193;28;20044;-78
2021/07/08 02:34:13;;;;;;;3.47;1.95;;;;;;;;;;4999760;28;20045;-78
2021/07/08 02:36:38;;;;;;;3.50;1.80;;;;;;;;;;4999242;28;20034;-78
2021/07/08 02:39:05;;;;;;;4.07;1.65;;;;;;;;;;5015340;28;20518;-78
2021/07/08 02:41:30;;;;;;;3.42;1.85;;;;;;;;;;4996344;28;20152;-78
2021/07/08 02:43:57;;;;;;;2.90;1.52;;;;;;;;;;4996578;28;20446;-78
2021/07/08 02:46:22;;;;;;;4.05;2.03;;;;;;;;;;5032578;28;20029;-78
2021/07/08 02:48:47;;;;;;;3.22;1.80;;;;;;;;;;4992613;28;20060;-79
2021/07/08 02:51:13;;;;;;;3.15;1.98;;;;;;;;;;5015792;28;20040;-78
2021/07/08 02:53:38;;;;;;;2.55;1.60;;;;;;;;;;4983384;28;20166;-78
2021/07/08 02:56:04;;;;;;;3.88;2.03;;;;;;;;;;4999230;28;20155;-77
2021/07/08 02:58:29;;;;;;;3.60;1.70;;;;;;;;;;5015511;28;20098;-78
2021/07/08 03:00:55;;;;;;;3.90;1.65;;;;;;;;;;5014430;28;20476;-78
2021/07/08 03:03:20;;;;;;;2.35;1.75;;;;;;;;;;5015769;28;20022;-78
2021/07/08 03:05:46;;;;;;;2.95;1.70;;;;;;;;;;5008410;28;20547;-80
2021/07/08 03:08:11;;;;;;;2.75;1.60;;;;;;;;;;4979679;28;20021;-80
2021/07/08 03:10:37;;;;;;;2.90;1.58;;;;;;;;;;5012310;28;20180;-80
2021/07/08 03:13:03;;;;;;;2.60;1.80;;;;;;;;;;5015008;28;20029;-79
2021/07/08 03:15:28;;;;;;;2.85;1.60;;;;;;;;;;4998896;28;20099;-80
2021/07/08 03:17:54;;;;;;;3.65;1.92;;;;;;;;;;4995549;28;20049;-80
2021/07/08 03:20:28;;;;;;;2.78;1.60;;;;;;;;;;5015159;28;20040;-80
2021/07/08 03:22:53;;;;;;;2.67;1.88;;;;;;;;;;5025649;28;20519;-80
2021/07/08 03:25:20;;;;;;;3.58;1.85;;;;;;;;;;5015138;28;20030;-81
2021/07/08 03:27:45;;;;;;;5.82;2.08;;;;;;;;;;4982637;28;20120;-80
2021/07/08 03:30:12;;;;;;;2.72;1.60;;;;;;;;;;5014758;28;20051;-80
2021/07/08 03:32:38;;;;;;;3.97;1.85;;;;;;;;;;4993814;28;20034;-80
2021/07/08 03:35:04;;;;;;;4.55;2.30;;;;;;;;;;4998113;28;20048;-80
2021/07/08 03:37:30;;;;;;;3.35;1.60;;;;;;;;;;4995262;28;20022;-80
2021/07/08 03:39:56;;;;;;;2.80;1.52;;;;;;;;;;5015021;28;20025;-80
2021/07/08 03:42:21;;;;;;;3.63;1.80;;;;;;;;;;5022394;28;20108;-80
2021/07/08 03:44:47;;;;;;;3.13;1.73;;;;;;;;;;5014811;28;20060;-80
2021/07/08 03:47:12;;;;;;;4.40;1.95;;;;;;;;;;4979325;28;20036;-80
2021/07/08 03:49:38;;;;;;;2.67;1.42;;;;;;;;;;5014277;28;20061;-80
2021/07/08 03:52:04;;;;;;;3.78;1.75;;;;;;;;;;4979010;28;20077;-80
2021/07/08 03:54:29;;;;;;;3.50;1.63;;;;;;;;;;5028267;28;20120;-80
2021/07/08 03:56:55;;;;;;;3.03;1.65;;;;;;;;;;4978701;28;20033;-80
2021/07/08 03:59:20;;;;;;;2.42;1.63;;;;;;;;;;5026481;28;20119;-80
2021/07/08 04:01:46;;;;;;;4.05;1.88;;;;;;;;;;4997916;28;20092;-80
2021/07/08 04:04:11;;;;;;;4.38;2.08;;;;;;;;;;5028291;28;20454;-80
2021/07/08 04:06:37;;;;;;;3.50;2.00;;;;;;;;;;4981472;28;20030;-80
2021/07/08 04:09:02;;;;;;;3.58;1.98;;;;;;;;;;5014460;28;20434;-80
2021/07/08 04:11:28;;;;;;;4.00;1.77;;;;;;;;;;5014489;28;20096;-80
2021/07/08 04:13:53;;;;;;;2.75;1.73;;;;;;;;;;4994814;28;20034;-80
2021/07/08 04:16:19;;;;;;;3.53;1.55;;;;;;;;;;4997715;28;20021;-80
2021/07/08 04:18:44;;;;;;;2.78;1.80;;;;;;;;;;4994097;28;20037;-80
2021/07/08 04:21:10;;;;;;;2.63;1.52;;;;;;;;;;5030493;28;20029;-80
2021/07/08 04:23:35;;;;;;;2.75;1.63;;;;;;;;;;4994543;28;20038;-80
2021/07/08 04:26:01;;;;;;;3.13;1.70;;;;;;;;;;4995145;28;20362;-79
2021/07/08 04:28:26;;;;;;;2.40;1.65;;;;;;;;;;5011268;28;20045;-79
2021/07/08 04:30:51;;;;;;;2.80;2.03;;;;;;;;;;5031063;28;20041;-79
2021/07/08 04:33:17;;;;;;;3.63;1.77;;;;;;;;;;4997306;28;20052;-79
2021/07/08 04:35:44;;;;;;;3.05;1.75;;;;;;;;;;5014523;28;20041;-79
2021/07/08 04:38:12;;;;;;;2.70;1.67;;;;;;;;;;5013896;28;20041;-79
2021/07/08 04:40:38;;;;;;;2.88;1.63;;;;;;;;;;4997646;28;20380;-79
2021/07/08 04:43:04;;;;;;;4.30;1.85;;;;;;;;;;4981512;28;20029;-79
2021/07/08 04:45:30;;;;;;;3.95;2.05;;;;;;;;;;5014154;28;20024;-79
2021/07/08 04:47:56;;;;;;;3.67;1.77;;;;;;;;;;5013668;28;20478;-79
2021/07/08 04:50:22;;;;;;;2.25;1.45;;;;;;;;;;4997691;28;20094;-79
2021/07/08 04:52:49;;;;;;;2.88;2.05;;;;;;;;;;5013451;28;20476;-79
2021/07/08 04:55:15;;;;;;;5.93;2.35;;;;;;;;;;5013736;28;20026;-79
2021/07/08 04:57:40;;;;;;;2.55;1.77;;;;;;;;;;4997919;28;20037;-79
2021/07/08 05:00:08;;;;;;;2.97;1.70;;;;;;;;;;5013546;28;20518;-79
2021/07/08 05:02:33;;;;;;;3.13;1.55;;;;;;;;;;4997407;28;20405;-79
2021/07/08 05:04:59;;;;;;;2.70;1.80;;;;;;;;;;5013438;28;20108;-79
2021/07/08 05:07:24;;;;;;;3.45;1.65;;;;;;;;;;5013410;28;20033;-79
2021/07/08 05:09:50;;;;;;;2.75;1.58;;;;;;;;;;5013694;28;20045;-79
2021/07/08 05:12:15;;;;;;;3.33;2.20;;;;;;;;;;4977858;28;20033;-79
2021/07/08 05:14:41;;;;;;;3.53;1.60;;;;;;;;;;5025879;28;20030;-79
2021/07/08 05:17:06;;;;;;;3.38;2.00;;;;;;;;;;5010055;28;20029;-79
2021/07/08 05:19:32;;;;;;;2.55;1.38;;;;;;;;;;5029849;28;20094;-79
2021/07/08 05:21:59;;;;;;;2.72;1.65;;;;;;;;;;5008088;28;20041;-79
2021/07/08 05:24:26;;;;;;;4.43;1.63;;;;;;;;;;4993262;28;20025;-79
2021/07/08 05:26:51;;;;;;;3.63;2.00;;;;;;;;;;4997008;28;20096;-79
2021/07/08 05:29:17;;;;;;;3.03;1.73;;;;;;;;;;4997178;28;20033;-79
2021/07/08 05:31:43;;;;;;;3.10;1.77;;;;;;;;;;4980447;28;20459;-79
2021/07/08 05:34:08;;;;;;;3.30;1.73;;;;;;;;;;5013504;28;20026;-79
2021/07/08 05:36:34;;;;;;;3.30;1.77;;;;;;;;;;4980338;28;20391;-79
2021/07/08 05:39:00;;;;;;;2.35;1.30;;;;;;;;;;5030063;28;20087;-79
2021/07/08 05:41:25;;;;;;;4.03;1.80;;;;;;;;;;5012546;28;20041;-80
2021/07/08 05:43:51;;;;;;;6.00;1.73;;;;;;;;;;4991549;28;20029;-80
2021/07/08 05:46:17;;;;;;;5.57;2.00;;;;;;;;;;5027174;28;20037;-81
2021/07/08 05:48:42;;;;;;;6.20;2.03;;;;;;;;;;5010053;28;20038;-81
2021/07/08 05:51:08;;;;;;;5.57;1.90;;;;;;;;;;4997240;28;20155;-80
2021/07/08 05:53:33;;;;;;;5.90;2.30;;;;;;;;;;4998625;28;20037;-80
2021/07/08 05:55:59;;;;;;;5.95;2.63;;;;;;;;;;5000561;28;20037;-80
2021/07/08 05:58:24;;;;;;;4.30;2.80;;;;;;;;;;4984252;28;20025;-80
2021/07/08 06:00:50;;;;;;;4.15;2.33;;;;;;;;;;5013752;28;20034;-80
2021/07/08 06:03:16;;;;;;;5.65;2.65;;;;;;;;;;5016192;28;20041;-80
2021/07/08 06:05:42;;;;;;;4.30;3.63;;;;;;;;;;5000800;28;20029;-81
2021/07/08 06:08:07;;;;;;;5.85;3.13;;;;;;;;;;4982994;28;20061;-80
2021/07/08 06:10:33;;;;;;;7.00;3.10;;;;;;;;;;5013636;28;20112;-80
2021/07/08 06:12:58;;;;;;;4.95;2.85;;;;;;;;;;5000417;28;20078;-81
2021/07/08 06:15:24;;;;;;;5.63;2.63;;;;;;;;;;5000154;28;20112;-80
2021/07/08 06:17:49;;;;;;;4.70;2.70;;;;;;;;;;4979238;28;20104;-80
2021/07/08 06:20:16;;;;;;;4.68;2.22;;;;;;;;;;5013053;28;20475;-81
2021/07/08 06:22:41;;;;;;;5.30;2.80;;;;;;;;;;4983864;28;20128;-84
2021/07/08 06:25:07;;;;;;;4.97;2.80;;;;;;;;;;5016741;28;20402;-81
2021/07/08 06:27:33;;;;;;;6.03;2.95;;;;;;;;;;4984375;28;20052;-82
2021/07/08 06:29:58;;;;;;;5.57;2.60;;;;;;;;;;5016467;28;20494;-87
2021/07/08 06:32:25;;;;;;;6.15;3.45;;;;;;;;;;4984344;28;20033;-86
2021/07/08 06:34:53;;;;;;;10.93;3.33;;;;;;;;;;4984641;28;20033;-86
2021/07/08 06:37:19;;;;;;;7.20;3.05;;;;;;;;;;5000251;28;20057;-84
2021/07/08 06:39:46;;;;;;;6.30;3.08;;;;;;;;;;5016794;28;20026;-88
2021/07/08 06:42:11;;;;;;;8.02;2.83;;;;;;;;;;4984707;28;20499;-84
2021/07/08 06:44:37;;;;;;;6.45;2.83;;;;;;;;;;4983563;28;20041;-84
2021/07/08 06:47:03;;;;;;;7.78;2.25;;;;;;;;;;4982689;28;20038;-84
2021/07/08 06:49:30;;;;;;;3.85;1.75;;;;;;;;;;4984066;28;20029;-84
2021/07/08 06:51:56;;;;;;;5.40;1.92;;;;;;;;;;4999205;28;20120;-86
2021/07/08 06:54:23;;;;;;;5.90;3.08;;;;;;;;;;5018428;28;20552;-86
2021/07/08 06:56:49;;;;;;;5.60;2.33;;;;;;;;;;5004356;28;20044;-89
2021/07/08 06:59:15;;;;;;;3.45;2.08;;;;;;;;;;5020357;28;20037;-88
2021/07/08 07:01:40;;;;;;;4.22;1.83;;;;;;;;;;5000508;28;20391;-88
2021/07/08 07:04:06;;;;;;;5.78;2.05;;;;;;;;;;4999615;28;20036;-88
2021/07/08 07:06:31;;;;;;;4.40;2.13;;;;;;;;;;5000053;28;20387;-88
2021/07/08 07:08:57;;;;;;;5.85;2.50;;;;;;;;;;5001062;28;20061;-88
2021/07/08 07:11:24;;;;;;;4.88;2.33;;;;;;;;;;5006160;28;20057;-89
2021/07/08 07:13:51;;;;;;;4.90;2.17;;;;;;;;;;5001790;28;20026;-89
2021/07/08 07:16:16;;;;;;;4.50;2.05;;;;;;;;;;5001962;28;20029;-89
2021/07/08 07:18:41;;;;;;;3.78;2.30;;;;;;;;;;5002136;28;20060;-89
2021/07/08 07:21:11;;;;;;;7.47;2.75;;;;;;;;;;5018271;28;20033;-88
2021/07/08 07:23:38;;;;;;;8.02;3.00;;;;;;;;;;5002708;28;20029;-88
2021/07/08 07:26:03;;;;;;;14.13;3.92;;;;;;;;;;5002021;28;20033;-87
2021/07/08 07:28:30;;;;;;;14.63;3.70;;;;;;;;;;4996700;28;20037;-87
2021/07/08 07:30:56;;;;;;;7.28;3.00;;;;;;;;;;4991748;28;20034;-87
2021/07/08 07:33:22;;;;;;;7.68;2.85;;;;;;;;;;4997754;28;20068;-88
2021/07/08 07:35:52;;;;;;;7.75;3.55;;;;;;;;;;4983616;28;20121;-86
2021/07/08 07:38:18;;;;;;;7.03;3.58;;;;;;;;;;5015200;28;20022;-86
2021/07/08 07:40:44;;;;;;;8.65;4.28;;;;;;;;;;5015677;28;20029;-88
2021/07/08 07:43:10;;;;;;;11.02;3.75;;;;;;;;;;4999236;28;20028;-88
2021/07/08 07:45:37;;;;;;;11.18;3.70;;;;;;;;;;4981071;28;20087;-88
2021/07/08 07:48:03;;;;;;;8.40;3.60;;;;;;;;;;4995749;28;20088;-87
2021/07/08 07:50:32;;;;;;;8.07;4.45;;;;;;;;;;5027638;28;20434;-87
2021/07/08 07:52:58;;;;;;;14.88;4.57;;;;;;;;;;4999663;28;20124;-86
2021/07/08 07:55:27;;;;;;;11.20;4.20;;;;;;;;;;4999378;28;20128;-86
2021/07/08 07:57:56;;;;;;;10.50;4.00;;;;;;;;;;4998909;28;20091;-87
2021/07/08 08:00:22;;;;;;;9.75;4.75;;;;;;;;;;4999598;28;20034;-86
2021/07/08 08:02:47;;;;;;;8.68;4.80;;;;;;;;;;4982661;28;20545;-88
2021/07/08 08:10:27;;;;;;;9.05;4.38;;;;;;;;;;5017589;28;20506;-88
2021/07/08 08:12:55;;;;;;;10.23;4.97;;;;;;;;;;4982748;28;20480;-85
2021/07/08 08:15:21;;;;;;;6.78;3.72;;;;;;;;;;5014572;28;20029;-85
2021/07/08 08:17:47;;;;;;;9.32;4.05;;;;;;;;;;5000066;28;20120;-85
2021/07/08 08:20:13;;;;;;;8.15;3.70;;;;;;;;;;5000139;28;20037;-87
2021/07/08 08:22:41;;;;;;;8.25;4.35;;;;;;;;;;4983751;28;20029;-87
2021/07/08 08:25:08;;;;;;;7.97;3.30;;;;;;;;;;5016975;28;20539;-88
2021/07/08 08:27:33;;;;;;;11.30;4.35;;;;;;;;;;4982990;28;20083;-87
2021/07/08 08:29:58;;;;;;;8.90;4.20;;;;;;;;;;4998640;28;20041;-87
2021/07/08 08:32:24;;;;;;;9.82;4.38;;;;;;;;;;4998593;28;20087;-88
2021/07/08 08:34:50;;;;;;;9.35;4.25;;;;;;;;;;5011152;28;20099;-86
2021/07/08 08:37:17;;;;;;;9.13;3.55;;;;;;;;;;5016179;28;20025;-87
2021/07/08 08:39:44;;;;;;;11.93;4.28;;;;;;;;;;4994316;28;20209;-88
2021/07/08 08:42:14;;;;;;;12.20;4.55;;;;;;;;;;4995027;28;20472;-86
2021/07/08 08:44:40;;;;;;;8.32;3.88;;;;;;;;;;4994760;28;20793;-85
2021/07/08 08:47:12;;;;;;;6.85;3.60;;;;;;;;;;5011378;28;20382;-87
2021/07/08 08:49:41;;;;;;;8.20;5.30;;;;;;;;;;5002787;28;20048;-86
2021/07/08 08:52:09;;;;;;;7.22;3.78;;;;;;;;;;4997972;28;20504;-86
2021/07/08 08:54:39;;;;;;;5.57;3.13;;;;;;;;;;4997559;28;20121;-86
2021/07/08 08:57:08;;;;;;;6.43;2.90;;;;;;;;;;4998379;28;20032;-86
2021/07/08 08:59:34;;;;;;;7.32;3.47;;;;;;;;;;4998678;28;20034;-89
2021/07/08 09:02:12;;;;;;;4.80;2.58;;;;;;;;;;4998897;28;20483;-89
2021/07/08 09:04:37;;;;;;;8.55;2.75;;;;;;;;;;5014671;28;20042;-88
2021/07/08 09:07:27;;;;;;;4.28;3.03;;;;;;;;;;4998867;28;20021;-86
2021/07/08 09:10:01;;;;;;;5.07;2.55;;;;;;;;;;5000358;28;20041;-87
2021/07/08 09:12:30;;;;;;;4.47;2.60;;;;;;;;;;4984003;28;20035;-87
2021/07/08 09:15:16;;;;;;;5.50;2.70;;;;;;;;;;5000020;28;20356;-88
2021/07/08 09:17:42;;;;;;;5.80;3.00;;;;;;;;;;4998560;28;20171;-83
2021/07/08 09:20:09;;;;;;;5.28;2.60;;;;;;;;;;4998818;28;20095;-84
2021/07/08 09:22:36;;;;;;;6.50;2.55;;;;;;;;;;4984120;28;20025;-85
2021/07/08 09:25:37;;;;;;;7.47;2.80;;;;;;;;;;5000267;28;20372;-89
2021/07/08 09:28:22;;;;;;;4.28;2.55;;;;;;;;;;4963494;28;20030;-90
2021/07/08 09:31:03;;;;;;;4.03;2.42;;;;;;;;;;5017353;28;20049;-88
2021/07/08 09:33:40;;;;;;;4.47;2.97;;;;;;;;;;5004227;28;20037;-87
2021/07/08 09:36:16;;;;;;;7.15;2.97;;;;;;;;;;5004443;28;20048;-87
2021/07/08 09:38:45;;;;;;;5.18;2.60;;;;;;;;;;4983288;28;20034;-87
2021/07/08 09:41:13;;;;;;;5.70;2.45;;;;;;;;;;5015998;28;20108;-87
2021/07/08 09:43:42;;;;;;;5.78;3.25;;;;;;;;;;5032706;28;20041;-87
2021/07/08 09:46:12;;;;;;;10.57;3.78;;;;;;;;;;4999598;28;20405;-86
2021/07/08 09:48:39;;;;;;;5.03;2.67;;;;;;;;;;5016493;28;20042;-86
2021/07/08 09:51:05;;;;;;;5.40;3.20;;;;;;;;;;5000397;28;20026;-88
2021/07/08 09:53:48;;;;;;;5.28;2.95;;;;;;;;;;4999914;28;20404;-88
2021/07/08 09:56:37;;;;;;;6.72;3.17;;;;;;;;;;4984093;28;20472;-87
2021/07/08 09:59:06;;;;;;;4.20;2.55;;;;;;;;;;4999354;28;20038;-87
2021/07/08 10:01:32;;;;;;;6.82;3.58;;;;;;;;;;4985342;28;20029;-88
2021/07/08 10:04:01;;;;;;;5.40;3.10;;;;;;;;;;5003347;28;20041;-95
2021/07/08 10:07:28;;;;;;;5.72;2.95;;;;;;;;;;5007440;28;20038;-96
2021/07/08 10:10:00;;;;;;;6.60;3.45;;;;;;;;;;5036137;28;20559;-92
2021/07/08 10:12:35;;;;;;;8.30;3.80;;;;;;;;;;5003603;28;20031;-92
2021/07/08 10:15:08;;;;;;;6.45;3.33;;;;;;;;;;5020987;28;20056;-89
2021/07/08 10:17:35;;;;;;;6.20;3.75;;;;;;;;;;5002906;28;20033;-88
2021/07/08 10:20:01;;;;;;;6.07;3.65;;;;;;;;;;5002156;28;20034;-85
2021/07/08 10:22:27;;;;;;;5.65;3.63;;;;;;;;;;4985755;28;20033;-78
2021/07/08 10:24:52;;;;;;;8.48;3.67;;;;;;;;;;5002873;28;20029;-83
2021/07/08 10:27:18;;;;;;;6.78;3.35;;;;;;;;;;5001579;28;20495;-80
2021/07/08 10:29:43;;;;;;;7.03;3.15;;;;;;;;;;5000452;28;20040;-80
2021/07/08 10:32:11;;;;;;;9.75;3.17;;;;;;;;;;4997178;28;20455;-80
2021/07/08 10:34:52;;;;;;;5.50;3.47;;;;;;;;;;5010518;28;20038;-80
2021/07/08 10:37:29;;;;;;;5.45;3.65;;;;;;;;;;4999378;28;20057;-80
2021/07/08 10:39:56;;;;;;;7.28;3.50;;;;;;;;;;5015787;28;20037;-80
2021/07/08 10:42:41;;;;;;;4.85;2.80;;;;;;;;;;4979653;28;20032;-81
2021/07/08 10:45:07;;;;;;;5.57;3.05;;;;;;;;;;5029640;28;20733;-80
2021/07/08 10:47:37;;;;;;;6.72;3.67;;;;;;;;;;4999252;28;20053;-81
2021/07/08 10:50:05;;;;;;;4.65;3.22;;;;;;;;;;4983528;28;20029;-81
2021/07/08 10:52:42;;;;;;;5.28;3.03;;;;;;;;;;4999908;28;20475;-80
2021/07/08 10:55:32;;;;;;;8.10;3.65;;;;;;;;;;4999518;28;20034;-80
2021/07/08 10:57:58;;;;;;;8.75;3.35;;;;;;;;;;5032862;28;20033;-80
2021/07/08 11:00:44;;;;;;;7.43;3.78;;;;;;;;;;5000062;28;20125;-80
2021/07/08 11:03:39;;;;;;;7.97;4.13;;;;;;;;;;4999144;28;20030;-81
2021/07/08 11:06:17;;;;;;;8.40;3.85;;;;;;;;;;5032029;28;20043;-81
2021/07/08 11:08:45;;;;;;;6.72;3.67;;;;;;;;;;5000077;28;20095;-80
2021/07/08 11:11:23;;;;;;;4.88;3.47;;;;;;;;;;5016031;28;20480;-81
2021/07/08 11:13:55;;;;;;;11.55;6.63;;;;;;;;;;5032575;28;20068;-80
2021/07/08 11:16:43;;;;;;;13.32;8.32;;;;;;;;;;4999486;28;20379;-80
2021/07/08 11:19:12;;;;;;;10.88;7.47;;;;;;;;;;4998864;28;20120;-80
2021/07/08 11:21:56;;;;;;;8.75;6.00;;;;;;;;;;4999128;28;20034;-80
2021/07/08 11:24:23;;;;;;;10.02;5.88;;;;;;;;;;5014628;28;20095;-81
2021/07/08 11:27:12;;;;;;;33.97;29.77;;;;;;;;;;4998019;28;20017;-81
2021/07/08 11:29:50;;;;;;;169.02;151.63;;;;;;;;;;4999506;28;20033;-80
2021/07/08 11:32:27;;;;;;;81.13;73.20;;;;;;;;;;5014829;28;20028;-81
2021/07/08 11:34:53;;;;;;;29.30;26.20;;;;;;;;;;5009975;28;20030;-81
2021/07/08 11:37:21;;;;;;;8.43;7.15;;;;;;;;;;5023018;28;20076;-80
2021/07/08 11:39:49;;;;;;;6.63;4.93;;;;;;;;;;5004994;28;20052;-81
2021/07/08 11:42:14;;;;;;;5.38;4.20;;;;;;;;;;5006116;28;20044;-81
2021/07/08 11:44:40;;;;;;;7.55;4.25;;;;;;;;;;5020445;28;20451;-81
2021/07/08 11:47:08;;;;;;;6.20;4.90;;;;;;;;;;5021234;28;20018;-81
2021/07/08 11:49:33;;;;;;;7.68;4.63;;;;;;;;;;5003693;28;20025;-80
2021/07/08 11:51:59;;;;;;;6.40;3.63;;;;;;;;;;5002719;28;20026;-81
2021/07/08 11:54:24;;;;;;;4.60;3.25;;;;;;;;;;4981971;28;20033;-81
2021/07/08 11:56:54;;;;;;;6.82;2.67;;;;;;;;;;4998343;28;20021;-82
2021/07/08 11:59:20;;;;;;;5.57;2.80;;;;;;;;;;5011579;28;20068;-81
2021/07/08 12:01:46;;;;;;;6.07;2.85;;;;;;;;;;4997448;28;20056;-81
2021/07/08 12:04:21;;;;;;;6.07;2.83;;;;;;;;;;5030829;28;20060;-80
2021/07/08 12:06:46;;;;;;;9.82;3.42;;;;;;;;;;5031141;28;20140;-80
2021/07/08 12:09:13;;;;;;;4.78;2.70;;;;;;;;;;5031069;28;20419;-80
2021/07/08 12:11:41;;;;;;;6.10;3.08;;;;;;;;;;5030565;28;20496;-79
2021/07/08 12:14:08;;;;;;;4.22;2.63;;;;;;;;;;5013533;28;20033;-81
2021/07/08 12:16:35;;;;;;;5.18;2.40;;;;;;;;;;4997469;28;20068;-79
2021/07/08 12:19:07;;;;;;;3.90;2.15;;;;;;;;;;5013275;28;20496;-79
2021/07/08 12:21:35;;;;;;;4.25;3.05;;;;;;;;;;5014835;28;20073;-81
2021/07/08 12:24:28;;;;;;;5.32;2.75;;;;;;;;;;4997321;28;20029;-82
2021/07/08 12:26:58;;;;;;;4.32;2.25;;;;;;;;;;4994459;28;20041;-80
2021/07/08 12:29:25;;;;;;;3.75;2.58;;;;;;;;;;4996721;28;20124;-80
2021/07/08 12:32:04;;;;;;;8.90;3.03;;;;;;;;;;4977631;28;20029;-80
2021/07/08 12:34:57;;;;;;;9.10;2.85;;;;;;;;;;4997290;28;20045;-81
2021/07/08 12:37:30;;;;;;;4.15;2.53;;;;;;;;;;4999302;28;20025;-81
2021/07/08 12:40:05;;;;;;;2.90;2.38;;;;;;;;;;5014215;28;20033;-82
2021/07/08 12:42:34;;;;;;;4.75;2.53;;;;;;;;;;4999523;28;20071;-86
2021/07/08 12:45:28;;;;;;;4.50;2.20;;;;;;;;;;4999248;28;20472;-88
2021/07/08 12:47:56;;;;;;;5.32;2.53;;;;;;;;;;4997349;28;20033;-88
2021/07/08 12:50:24;;;;;;;4.13;2.13;;;;;;;;;;4998800;28;20042;-85
2021/07/08 12:52:51;;;;;;;3.92;2.55;;;;;;;;;;4997797;28;20352;-87
2021/07/08 12:55:37;;;;;;;4.45;2.30;;;;;;;;;;5017112;28;20034;-83
2021/07/08 12:58:06;;;;;;;6.93;2.83;;;;;;;;;;5006205;28;20044;-84
2021/07/08 13:00:33;;;;;;;5.38;2.33;;;;;;;;;;5011649;28;20491;-84
2021/07/08 13:02:59;;;;;;;5.18;2.30;;;;;;;;;;4996701;28;20476;-83
2021/07/08 13:05:38;;;;;;;6.65;2.90;;;;;;;;;;4997059;28;20041;-84
2021/07/08 13:08:08;;;;;;;6.68;2.78;;;;;;;;;;4997421;28;20112;-83
2021/07/08 13:10:36;;;;;;;4.80;2.58;;;;;;;;;;4981637;28;20091;-83
2021/07/08 13:13:01;;;;;;;5.85;2.78;;;;;;;;;;4997359;28;20101;-84
2021/07/08 13:15:28;;;;;;;6.63;3.50;;;;;;;;;;4994030;28;20137;-83
2021/07/08 13:18:07;;;;;;;4.78;2.47;;;;;;;;;;5007516;28;20117;-84
2021/07/08 13:20:37;;;;;;;4.95;2.55;;;;;;;;;;5006487;28;20033;-85
2021/07/08 13:23:29;;;;;;;5.30;2.38;;;;;;;;;;5005272;28;20034;-84
2021/07/08 13:25:56;;;;;;;5.38;2.30;;;;;;;;;;4993624;28;20376;-85
2021/07/08 13:28:30;;;;;;;4.10;2.30;;;;;;;;;;4992187;28;20113;-83
2021/07/08 13:31:13;;;;;;;5.82;3.20;;;;;;;;;;5008789;28;20503;-84
2021/07/08 13:33:51;;;;;;;4.00;2.28;;;;;;;;;;4992381;28;20034;-84
2021/07/08 13:36:22;;;;;;;4.10;2.25;;;;;;;;;;4976430;28;20391;-84
2021/07/08 13:39:09;;;;;;;5.00;2.40;;;;;;;;;;4986024;28;20040;-84
2021/07/08 13:41:44;;;;;;;3.90;2.20;;;;;;;;;;5012489;28;20038;-85
2021/07/08 13:44:15;;;;;;;5.53;2.55;;;;;;;;;;4996054;28;20029;-84
2021/07/08 13:46:42;;;;;;;3.40;1.98;;;;;;;;;;5012356;28;20038;-84
2021/07/08 13:49:15;;;;;;;3.40;1.80;;;;;;;;;;5012439;28;20033;-84
2021/07/08 13:51:46;;;;;;;4.00;2.10;;;;;;;;;;4995188;28;20040;-84
2021/07/08 13:54:13;;;;;;;5.43;2.85;;;;;;;;;;4992302;28;20435;-83
2021/07/08 13:56:38;;;;;;;4.97;2.70;;;;;;;;;;5010004;28;20041;-83
2021/07/08 13:59:05;;;;;;;4.28;2.28;;;;;;;;;;5012264;28;20029;-83
2021/07/08 14:01:30;;;;;;;4.82;2.40;;;;;;;;;;5028239;28;20495;-83
2021/07/08 14:03:56;;;;;;;5.00;2.10;;;;;;;;;;4995950;28;20095;-84
2021/07/08 14:06:21;;;;;;;6.07;2.58;;;;;;;;;;4995505;28;20249;-85
2021/07/08 14:08:47;;;;;;;4.70;2.25;;;;;;;;;;4995432;28;20503;-83
2021/07/08 14:11:14;;;;;;;4.35;2.42;;;;;;;;;;4979670;28;20038;-82
2021/07/08 14:13:40;;;;;;;5.43;2.13;;;;;;;;;;4996082;28;20027;-83
2021/07/08 14:16:05;;;;;;;3.35;1.90;;;;;;;;;;4999287;28;20030;-83
2021/07/08 14:18:31;;;;;;;4.50;2.30;;;;;;;;;;4960267;28;1121582;-83
2021/07/08 14:20:57;;;;;;;3.35;2.00;;;;;;;;;;5000050;28;20022;-83
2021/07/08 14:23:22;;;;;;;4.07;2.17;;;;;;;;;;5000513;28;20067;-83
2021/07/08 14:25:49;;;;;;;3.47;2.00;;;;;;;;;;4997002;28;20065;-83
2021/07/08 14:28:15;;;;;;;5.40;2.70;;;;;;;;;;5031661;28;20043;-84
2021/07/08 14:30:42;;;;;;;5.22;2.05;;;;;;;;;;4983634;28;20037;-83
2021/07/08 14:33:07;;;;;;;6.05;3.08;;;;;;;;;;4999947;28;20045;-83
2021/07/08 14:35:36;;;;;;;2.70;2.17;;;;;;;;;;4998136;28;20034;-84
2021/07/08 14:38:04;;;;;;;5.18;2.17;;;;;;;;;;5000049;28;20049;-83
2021/07/08 14:40:34;;;;;;;3.88;1.80;;;;;;;;;;4999779;28;20116;-83
2021/07/08 14:43:26;;;;;;;4.50;2.22;;;;;;;;;;5015904;28;20031;-83
2021/07/08 14:45:52;;;;;;;3.60;2.25;;;;;;;;;;5032960;28;20025;-83
2021/07/08 14:48:21;;;;;;;5.25;2.17;;;;;;;;;;4983526;28;20361;-83
2021/07/08 14:50:47;;;;;;;3.42;2.47;;;;;;;;;;4996593;28;20488;-83
2021/07/08 14:53:12;;;;;;;3.67;2.17;;;;;;;;;;4986738;28;20037;-83
2021/07/08 14:55:38;;;;;;;7.15;2.40;;;;;;;;;;4996252;28;20125;-83